sensor_id;sensor_type;location;lat;lon;timestamp;pressure;altitude;pressure_sealevel;temperature;humidity
58534;BME280;44109;52.398;7.024;2023-03-03T00:00:22;102293.50;;;2.73;100.00
58534;BME280;44109;52.398;7.024;2023-03-03T00:02:50;102288.28;;;2.71;100.00
58534;BME280;44109;52.398;7.024;2023-03-03T00:05:17;102293.47;;;2.83;100.00
58534;BME280;44109;52.398;7.024;2023-03-03T00:07:45;102291.56;;;2.78;100.00
58534;BME280;44109;52.398;7.024;2023-03-03T00:10:14;102300.34;;;2.75;100.00
58534;BME280;44109;52.398;7.024;2023-03-03T00:12:46;102297.03;;;2.78;100.00
58534;BME280;44109;52.398;7.024;2023-03-03T00:15:18;102301.34;;;2.95;100.00
58534;BME280;44109;52.398;7.024;2023-03-03T00:17:47;102301.34;;;2.95;100.00
58534;BME280;44109;52.398;7.024;2023-03-03T00:20:28;102299.72;;;2.89;100.00
58534;BME280;44109;52.398;7.024;2023-03-03T00:23:12;102300.81;;;2.93;100.00
58534;BME280;44109;52.398;7.024;2023-03-03T00:25:49;102295.13;;;2.79;100.00
58534;BME280;44109;52.398;7.024;2023-03-03T00:28:22;102306.53;;;3.01;100.00
58534;BME280;44109;52.398;7.024;2023-03-03T00:30:55;102296.59;;;3.16;100.00
58534;BME280;44109;52.398;7.024;2023-03-03T00:33:28;102307.03;;;3.09;100.00
58534;BME280;44109;52.398;7.024;2023-03-03T00:36:09;102306.19;;;3.13;100.00
58534;BME280;44109;52.398;7.024;2023-03-03T00:38:54;102305.09;;;3.14;100.00
58534;BME280;44109;52.398;7.024;2023-03-03T00:41:27;102307.25;;;3.17;100.00
58534;BME280;44109;52.398;7.024;2023-03-03T00:43:54;102317.22;;;2.98;100.00
58534;BME280;44109;52.398;7.024;2023-03-03T00:46:23;102312.09;;;2.81;100.00
58534;BME280;44109;52.398;7.024;2023-03-03T00:48:51;102289.28;;;3.01;100.00
58534;BME280;44109;52.398;7.024;2023-03-03T00:51:27;102241.97;;;2.75;100.00
58534;BME280;44109;52.398;7.024;2023-03-03T00:53:57;102282.94;;;2.36;100.00
58534;BME280;44109;52.398;7.024;2023-03-03T00:56:25;102303.00;;;2.96;100.00
58534;BME280;44109;52.398;7.024;2023-03-03T00:58:54;102301.91;;;2.97;100.00
58534;BME280;44109;52.398;7.024;2023-03-03T01:01:23;102293.06;;;3.10;100.00
58534;BME280;44109;52.398;7.024;2023-03-03T01:03:50;102300.09;;;3.21;100.00
58534;BME280;44109;52.398;7.024;2023-03-03T01:06:19;102294.34;;;3.23;100.00
58534;BME280;44109;52.398;7.024;2023-03-03T01:08:47;102284.25;;;3.18;100.00
58534;BME280;44109;52.398;7.024;2023-03-03T01:11:17;102284.97;;;2.79;100.00
58534;BME280;44109;52.398;7.024;2023-03-03T01:13:48;102300.03;;;2.87;100.00
58534;BME280;44109;52.398;7.024;2023-03-03T01:16:18;102281.47;;;2.69;100.00
58534;BME280;44109;52.398;7.024;2023-03-03T01:18:49;102280.59;;;2.78;100.00
58534;BME280;44109;52.398;7.024;2023-03-03T01:21:17;102288.25;;;2.82;100.00
58534;BME280;44109;52.398;7.024;2023-03-03T01:23:44;102263.78;;;2.31;100.00
58534;BME280;44109;52.398;7.024;2023-03-03T01:26:12;102297.22;;;2.12;100.00
58534;BME280;44109;52.398;7.024;2023-03-03T01:28:40;102280.66;;;2.63;100.00
58534;BME280;44109;52.398;7.024;2023-03-03T01:31:08;102283.06;;;2.80;100.00
58534;BME280;44109;52.398;7.024;2023-03-03T01:33:36;102266.59;;;2.85;100.00
58534;BME280;44109;52.398;7.024;2023-03-03T01:36:06;102275.59;;;2.21;100.00
58534;BME280;44109;52.398;7.024;2023-03-03T01:38:34;102291.06;;;2.61;100.00
58534;BME280;44109;52.398;7.024;2023-03-03T01:41:02;102300.88;;;2.72;100.00
58534;BME280;44109;52.398;7.024;2023-03-03T01:43:32;102302.22;;;2.85;100.00
58534;BME280;44109;52.398;7.024;2023-03-03T01:46:30;102294.16;;;3.04;100.00
58534;BME280;44109;52.398;7.024;2023-03-03T01:49:12;102289.75;;;3.08;100.00
58534;BME280;44109;52.398;7.024;2023-03-03T01:51:47;102254.78;;;2.90;100.00
58534;BME280;44109;52.398;7.024;2023-03-03T01:54:22;102288.13;;;3.07;100.00
58534;BME280;44109;52.398;7.024;2023-03-03T01:56:56;102289.66;;;2.74;100.00
58534;BME280;44109;52.398;7.024;2023-03-03T01:59:30;102290.31;;;3.10;100.00
58534;BME280;44109;52.398;7.024;2023-03-03T02:02:03;102288.16;;;3.02;100.00
58534;BME280;44109;52.398;7.024;2023-03-03T02:04:33;102284.47;;;2.67;100.00
58534;BME280;44109;52.398;7.024;2023-03-03T02:07:06;102291.38;;;2.49;100.00
58534;BME280;44109;52.398;7.024;2023-03-03T02:09:41;102295.09;;;2.84;100.00
58534;BME280;44109;52.398;7.024;2023-03-03T02:12:17;102300.25;;;2.96;100.00
58534;BME280;44109;52.398;7.024;2023-03-03T02:14:46;102290.72;;;2.83;100.00
58534;BME280;44109;52.398;7.024;2023-03-03T02:17:14;102244.94;;;2.84;100.00
58534;BME280;44109;52.398;7.024;2023-03-03T02:19:50;102263.41;;;2.63;100.00
58534;BME280;44109;52.398;7.024;2023-03-03T02:22:31;102285.22;;;2.88;100.00
58534;BME280;44109;52.398;7.024;2023-03-03T02:25:10;102289.09;;;2.77;100.00
58534;BME280;44109;52.398;7.024;2023-03-03T02:27:47;102282.47;;;2.88;100.00
58534;BME280;44109;52.398;7.024;2023-03-03T02:30:18;102287.97;;;2.83;100.00
58534;BME280;44109;52.398;7.024;2023-03-03T02:32:47;102284.06;;;2.94;100.00
58534;BME280;44109;52.398;7.024;2023-03-03T02:35:27;102282.31;;;2.64;100.00
58534;BME280;44109;52.398;7.024;2023-03-03T02:38:01;102281.25;;;2.45;100.00
58534;BME280;44109;52.398;7.024;2023-03-03T02:40:39;102279.84;;;2.63;100.00
58534;BME280;44109;52.398;7.024;2023-03-03T02:43:11;102281.75;;;2.62;100.00
58534;BME280;44109;52.398;7.024;2023-03-03T02:45:44;102282.34;;;2.59;100.00
58534;BME280;44109;52.398;7.024;2023-03-03T02:48:11;102278.06;;;2.92;100.00
58534;BME280;44109;52.398;7.024;2023-03-03T02:50:39;102258.53;;;3.04;100.00
58534;BME280;44109;52.398;7.024;2023-03-03T02:53:07;102271.94;;;3.11;100.00
58534;BME280;44109;52.398;7.024;2023-03-03T02:55:34;102260.97;;;3.11;100.00
58534;BME280;44109;52.398;7.024;2023-03-03T02:58:02;102275.50;;;3.11;100.00
58534;BME280;44109;52.398;7.024;2023-03-03T03:00:31;102273.00;;;3.15;100.00
58534;BME280;44109;52.398;7.024;2023-03-03T03:02:59;102279.75;;;3.33;100.00
58534;BME280;44109;52.398;7.024;2023-03-03T03:05:26;102274.28;;;3.33;100.00
58534;BME280;44109;52.398;7.024;2023-03-03T03:07:54;102272.22;;;3.04;100.00
58534;BME280;44109;52.398;7.024;2023-03-03T03:10:22;102259.63;;;3.03;100.00
58534;BME280;44109;52.398;7.024;2023-03-03T03:12:49;102261.81;;;3.06;100.00
58534;BME280;44109;52.398;7.024;2023-03-03T03:15:17;102244.00;;;2.49;100.00
58534;BME280;44109;52.398;7.024;2023-03-03T03:17:46;102264.75;;;2.70;100.00
58534;BME280;44109;52.398;7.024;2023-03-03T03:20:14;102279.97;;;2.97;100.00
58534;BME280;44109;52.398;7.024;2023-03-03T03:22:42;102283.81;;;2.96;100.00
58534;BME280;44109;52.398;7.024;2023-03-03T03:25:10;102279.38;;;3.05;100.00
58534;BME280;44109;52.398;7.024;2023-03-03T03:27:37;102253.59;;;3.06;100.00
58534;BME280;44109;52.398;7.024;2023-03-03T03:30:06;102286.06;;;3.33;100.00
58534;BME280;44109;52.398;7.024;2023-03-03T03:32:34;102275.34;;;3.37;100.00
58534;BME280;44109;52.398;7.024;2023-03-03T03:35:04;102289.63;;;3.34;100.00
58534;BME280;44109;52.398;7.024;2023-03-03T03:37:32;102280.19;;;3.50;100.00
58534;BME280;44109;52.398;7.024;2023-03-03T03:40:00;102296.25;;;3.27;100.00
58534;BME280;44109;52.398;7.024;2023-03-03T03:42:27;102293.72;;;3.31;100.00
58534;BME280;44109;52.398;7.024;2023-03-03T03:44:55;102298.41;;;3.30;100.00
58534;BME280;44109;52.398;7.024;2023-03-03T03:47:23;102286.34;;;3.26;100.00
58534;BME280;44109;52.398;7.024;2023-03-03T03:49:50;102289.13;;;3.21;100.00
58534;BME280;44109;52.398;7.024;2023-03-03T03:52:20;102296.13;;;3.43;100.00
58534;BME280;44109;52.398;7.024;2023-03-03T03:54:47;102310.38;;;3.45;100.00
58534;BME280;44109;52.398;7.024;2023-03-03T03:57:15;102265.09;;;3.08;100.00
58534;BME280;44109;52.398;7.024;2023-03-03T03:59:42;102293.13;;;3.00;100.00
58534;BME280;44109;52.398;7.024;2023-03-03T04:02:10;102294.38;;;3.13;100.00
58534;BME280;44109;52.398;7.024;2023-03-03T04:04:38;102293.81;;;3.21;100.00
58534;BME280;44109;52.398;7.024;2023-03-03T04:07:05;102284.44;;;3.27;100.00
58534;BME280;44109;52.398;7.024;2023-03-03T04:09:35;102289.56;;;3.39;100.00
58534;BME280;44109;52.398;7.024;2023-03-03T04:12:03;102295.44;;;3.22;100.00
58534;BME280;44109;52.398;7.024;2023-03-03T04:14:30;102300.41;;;3.20;100.00
58534;BME280;44109;52.398;7.024;2023-03-03T04:16:58;102282.53;;;3.27;100.00
58534;BME280;44109;52.398;7.024;2023-03-03T04:19:26;102303.84;;;3.36;100.00
58534;BME280;44109;52.398;7.024;2023-03-03T04:21:53;102296.94;;;3.43;100.00
58534;BME280;44109;52.398;7.024;2023-03-03T04:24:21;102290.69;;;3.38;100.00
58534;BME280;44109;52.398;7.024;2023-03-03T04:26:50;102290.69;;;3.38;100.00
58534;BME280;44109;52.398;7.024;2023-03-03T04:29:18;102277.91;;;3.18;100.00
58534;BME280;44109;52.398;7.024;2023-03-03T04:31:45;102295.22;;;3.18;100.00
58534;BME280;44109;52.398;7.024;2023-03-03T04:34:13;102292.34;;;3.34;100.00
58534;BME280;44109;52.398;7.024;2023-03-03T04:36:40;102295.75;;;3.15;100.00
58534;BME280;44109;52.398;7.024;2023-03-03T04:39:08;102296.88;;;2.39;100.00
58534;BME280;44109;52.398;7.024;2023-03-03T04:41:36;102302.19;;;2.00;100.00
58534;BME280;44109;52.398;7.024;2023-03-03T04:44:05;102295.63;;;1.96;100.00
58534;BME280;44109;52.398;7.024;2023-03-03T04:46:33;102302.16;;;1.90;100.00
58534;BME280;44109;52.398;7.024;2023-03-03T04:49:00;102266.31;;;1.96;100.00
58534;BME280;44109;52.398;7.024;2023-03-03T04:51:29;102304.91;;;1.90;100.00
58534;BME280;44109;52.398;7.024;2023-03-03T04:53:56;102258.41;;;1.80;100.00
58534;BME280;44109;52.398;7.024;2023-03-03T04:56:24;102301.06;;;2.01;100.00
58534;BME280;44109;52.398;7.024;2023-03-03T04:58:52;102296.66;;;2.20;100.00
58534;BME280;44109;52.398;7.024;2023-03-03T05:01:20;102295.31;;;2.13;100.00
58534;BME280;44109;52.398;7.024;2023-03-03T05:03:48;102304.88;;;2.25;100.00
58534;BME280;44109;52.398;7.024;2023-03-03T05:06:16;102302.66;;;2.38;100.00
58534;BME280;44109;52.398;7.024;2023-03-03T05:08:44;102306.81;;;2.05;100.00
58534;BME280;44109;52.398;7.024;2023-03-03T05:11:12;102310.88;;;2.22;100.00
58534;BME280;44109;52.398;7.024;2023-03-03T05:13:40;102287.09;;;2.08;100.00
58534;BME280;44109;52.398;7.024;2023-03-03T05:16:07;102302.03;;;2.61;100.00
58534;BME280;44109;52.398;7.024;2023-03-03T05:18:37;102300.72;;;2.43;100.00
58534;BME280;44109;52.398;7.024;2023-03-03T05:21:04;102309.16;;;2.62;100.00
58534;BME280;44109;52.398;7.024;2023-03-03T05:23:32;102299.63;;;2.39;100.00
58534;BME280;44109;52.398;7.024;2023-03-03T05:26:00;102314.31;;;2.79;100.00
58534;BME280;44109;52.398;7.024;2023-03-03T05:28:27;102312.78;;;2.42;100.00
58534;BME280;44109;52.398;7.024;2023-03-03T05:30:55;102315.69;;;2.71;100.00
58534;BME280;44109;52.398;7.024;2023-03-03T05:33:23;102297.72;;;2.35;100.00
58534;BME280;44109;52.398;7.024;2023-03-03T05:35:54;102305.06;;;2.49;100.00
58534;BME280;44109;52.398;7.024;2023-03-03T05:38:23;102316.16;;;2.94;100.00
58534;BME280;44109;52.398;7.024;2023-03-03T05:40:51;102314.19;;;3.04;100.00
58534;BME280;44109;52.398;7.024;2023-03-03T05:43:19;102303.56;;;2.93;100.00
58534;BME280;44109;52.398;7.024;2023-03-03T05:45:47;102307.53;;;2.56;100.00
58534;BME280;44109;52.398;7.024;2023-03-03T05:48:21;102316.09;;;3.04;100.00
58534;BME280;44109;52.398;7.024;2023-03-03T05:50:49;102316.56;;;3.21;100.00
58534;BME280;44109;52.398;7.024;2023-03-03T05:53:18;102312.66;;;3.33;100.00
58534;BME280;44109;52.398;7.024;2023-03-03T05:55:46;102319.22;;;3.37;100.00
58534;BME280;44109;52.398;7.024;2023-03-03T05:58:13;102319.03;;;3.23;100.00
58534;BME280;44109;52.398;7.024;2023-03-03T06:00:41;102314.75;;;3.01;100.00
58534;BME280;44109;52.398;7.024;2023-03-03T06:03:09;102314.66;;;3.17;100.00
58534;BME280;44109;52.398;7.024;2023-03-03T06:05:36;102311.34;;;3.25;100.00
58534;BME280;44109;52.398;7.024;2023-03-03T06:08:04;102313.75;;;3.31;100.00
58534;BME280;44109;52.398;7.024;2023-03-03T06:10:33;102324.69;;;3.42;100.00
58534;BME280;44109;52.398;7.024;2023-03-03T06:13:01;102299.00;;;3.27;100.00
58534;BME280;44109;52.398;7.024;2023-03-03T06:15:29;102318.31;;;3.51;100.00
58534;BME280;44109;52.398;7.024;2023-03-03T06:17:56;102316.06;;;3.53;100.00
58534;BME280;44109;52.398;7.024;2023-03-03T06:20:24;102317.44;;;3.56;100.00
58534;BME280;44109;52.398;7.024;2023-03-03T06:22:51;102326.16;;;3.63;100.00
58534;BME280;44109;52.398;7.024;2023-03-03T06:25:19;102315.91;;;3.40;100.00
58534;BME280;44109;52.398;7.024;2023-03-03T06:27:48;102319.56;;;3.25;100.00
58534;BME280;44109;52.398;7.024;2023-03-03T06:30:16;102321.91;;;3.47;100.00
58534;BME280;44109;52.398;7.024;2023-03-03T06:32:45;102316.38;;;3.52;100.00
58534;BME280;44109;52.398;7.024;2023-03-03T06:35:12;102328.41;;;3.56;100.00
58534;BME280;44109;52.398;7.024;2023-03-03T06:37:40;102296.66;;;3.45;100.00
58534;BME280;44109;52.398;7.024;2023-03-03T06:40:09;102321.22;;;3.65;100.00
58534;BME280;44109;52.398;7.024;2023-03-03T06:42:37;102316.22;;;3.72;100.00
58534;BME280;44109;52.398;7.024;2023-03-03T06:45:07;102334.81;;;3.80;100.00
58534;BME280;44109;52.398;7.024;2023-03-03T06:47:35;102332.63;;;3.83;100.00
58534;BME280;44109;52.398;7.024;2023-03-03T06:50:03;102331.00;;;3.81;100.00
58534;BME280;44109;52.398;7.024;2023-03-03T06:52:32;102339.41;;;3.90;100.00
58534;BME280;44109;52.398;7.024;2023-03-03T06:55:01;102339.56;;;3.70;100.00
58534;BME280;44109;52.398;7.024;2023-03-03T06:57:38;102345.34;;;3.68;100.00
58534;BME280;44109;52.398;7.024;2023-03-03T07:00:17;102344.72;;;3.81;100.00
58534;BME280;44109;52.398;7.024;2023-03-03T07:02:53;102335.56;;;3.91;100.00
58534;BME280;44109;52.398;7.024;2023-03-03T07:05:26;102353.28;;;4.04;100.00
58534;BME280;44109;52.398;7.024;2023-03-03T07:07:55;102348.41;;;4.01;100.00
58534;BME280;44109;52.398;7.024;2023-03-03T07:10:25;102357.75;;;3.95;100.00
58534;BME280;44109;52.398;7.024;2023-03-03T07:13:14;102359.63;;;3.65;100.00
58534;BME280;44109;52.398;7.024;2023-03-03T07:15:46;102370.06;;;3.68;100.00
58534;BME280;44109;52.398;7.024;2023-03-03T07:18:34;102369.91;;;3.89;100.00
58534;BME280;44109;52.398;7.024;2023-03-03T07:21:13;102360.38;;;3.37;100.00
58534;BME280;44109;52.398;7.024;2023-03-03T07:23:44;102380.72;;;3.25;100.00
58534;BME280;44109;52.398;7.024;2023-03-03T07:26:15;102366.53;;;3.08;100.00
58534;BME280;44109;52.398;7.024;2023-03-03T07:28:52;102370.97;;;2.94;100.00
58534;BME280;44109;52.398;7.024;2023-03-03T07:31:30;102381.16;;;3.43;100.00
58534;BME280;44109;52.398;7.024;2023-03-03T07:34:15;102383.53;;;3.65;100.00
58534;BME280;44109;52.398;7.024;2023-03-03T07:36:48;102387.38;;;3.59;100.00
58534;BME280;44109;52.398;7.024;2023-03-03T07:39:25;102394.69;;;3.78;100.00
58534;BME280;44109;52.398;7.024;2023-03-03T07:42:13;102397.78;;;3.62;100.00
58534;BME280;44109;52.398;7.024;2023-03-03T07:44:44;102396.81;;;3.42;100.00
58534;BME280;44109;52.398;7.024;2023-03-03T07:47:23;102400.72;;;3.26;100.00
58534;BME280;44109;52.398;7.024;2023-03-03T07:49:54;102407.38;;;3.10;100.00
58534;BME280;44109;52.398;7.024;2023-03-03T07:52:26;102403.50;;;3.21;100.00
58534;BME280;44109;52.398;7.024;2023-03-03T07:54:59;102408.75;;;3.07;100.00
58534;BME280;44109;52.398;7.024;2023-03-03T07:57:45;102407.16;;;2.96;100.00
58534;BME280;44109;52.398;7.024;2023-03-03T08:03:39;102412.00;;;3.19;100.00
58534;BME280;44109;52.398;7.024;2023-03-03T08:06:29;102405.53;;;3.54;100.00
58534;BME280;44109;52.398;7.024;2023-03-03T08:09:34;102417.22;;;4.15;100.00
58534;BME280;44109;52.398;7.024;2023-03-03T08:12:30;102410.41;;;4.41;100.00
58534;BME280;44109;52.398;7.024;2023-03-03T08:15:20;102420.47;;;4.51;100.00
58534;BME280;44109;52.398;7.024;2023-03-03T08:17:51;102415.94;;;4.65;100.00
58534;BME280;44109;52.398;7.024;2023-03-03T08:20:44;102407.00;;;4.49;100.00
58534;BME280;44109;52.398;7.024;2023-03-03T08:23:15;102412.13;;;4.61;100.00
58534;BME280;44109;52.398;7.024;2023-03-03T08:25:44;102415.63;;;4.67;100.00
58534;BME280;44109;52.398;7.024;2023-03-03T08:28:12;102396.81;;;3.87;100.00
58534;BME280;44109;52.398;7.024;2023-03-03T08:30:41;102417.38;;;4.28;100.00
58534;BME280;44109;52.398;7.024;2023-03-03T08:33:10;102412.19;;;4.80;100.00
58534;BME280;44109;52.398;7.024;2023-03-03T08:35:38;102418.75;;;5.08;100.00
58534;BME280;44109;52.398;7.024;2023-03-03T08:38:08;102423.91;;;5.15;100.00
58534;BME280;44109;52.398;7.024;2023-03-03T08:40:36;102411.69;;;5.02;100.00
58534;BME280;44109;52.398;7.024;2023-03-03T08:43:04;102419.75;;;5.17;100.00
58534;BME280;44109;52.398;7.024;2023-03-03T08:45:33;102426.25;;;5.26;100.00
58534;BME280;44109;52.398;7.024;2023-03-03T08:48:02;102422.13;;;5.67;100.00
58534;BME280;44109;52.398;7.024;2023-03-03T08:50:30;102403.91;;;5.52;100.00
58534;BME280;44109;52.398;7.024;2023-03-03T08:52:57;102423.44;;;4.83;100.00
58534;BME280;44109;52.398;7.024;2023-03-03T08:55:26;102410.94;;;4.67;100.00
58534;BME280;44109;52.398;7.024;2023-03-03T08:57:54;102423.94;;;4.91;100.00
58534;BME280;44109;52.398;7.024;2023-03-03T09:00:22;102417.59;;;5.57;100.00
58534;BME280;44109;52.398;7.024;2023-03-03T09:02:52;102418.66;;;5.80;100.00
58534;BME280;44109;52.398;7.024;2023-03-03T09:05:22;102428.84;;;6.17;100.00
58534;BME280;44109;52.398;7.024;2023-03-03T09:07:51;102416.06;;;6.40;100.00
58534;BME280;44109;52.398;7.024;2023-03-03T09:10:23;102403.72;;;6.38;100.00
58534;BME280;44109;52.398;7.024;2023-03-03T09:12:59;102414.00;;;6.65;100.00
58534;BME280;44109;52.398;7.024;2023-03-03T09:15:31;102429.41;;;5.39;100.00
58534;BME280;44109;52.398;7.024;2023-03-03T09:18:10;102419.69;;;5.46;100.00
58534;BME280;44109;52.398;7.024;2023-03-03T09:20:42;102428.97;;;6.58;100.00
58534;BME280;44109;52.398;7.024;2023-03-03T09:23:32;102416.72;;;6.18;100.00
58534;BME280;44109;52.398;7.024;2023-03-03T09:26:25;102419.09;;;6.71;100.00
58534;BME280;44109;52.398;7.024;2023-03-03T09:29:00;102426.56;;;6.84;100.00
58534;BME280;44109;52.398;7.024;2023-03-03T09:31:43;102424.97;;;7.25;100.00
58534;BME280;44109;52.398;7.024;2023-03-03T09:34:19;102424.34;;;7.28;100.00
58534;BME280;44109;52.398;7.024;2023-03-03T09:36:50;102422.69;;;7.54;100.00
58534;BME280;44109;52.398;7.024;2023-03-03T09:39:19;102424.94;;;7.88;100.00
58534;BME280;44109;52.398;7.024;2023-03-03T09:45:22;102421.66;;;8.68;100.00
58534;BME280;44109;52.398;7.024;2023-03-03T09:51:37;102431.97;;;8.84;100.00
58534;BME280;44109;52.398;7.024;2023-03-03T09:54:21;102430.56;;;8.96;100.00
58534;BME280;44109;52.398;7.024;2023-03-03T09:57:05;102433.19;;;9.40;100.00
58534;BME280;44109;52.398;7.024;2023-03-03T10:03:07;102436.03;;;9.93;100.00
58534;BME280;44109;52.398;7.024;2023-03-03T10:05:56;102435.53;;;9.73;100.00
58534;BME280;44109;52.398;7.024;2023-03-03T10:08:38;102443.22;;;10.28;100.00
58534;BME280;44109;52.398;7.024;2023-03-03T10:11:25;102442.72;;;10.44;100.00
58534;BME280;44109;52.398;7.024;2023-03-03T10:17:21;102449.06;;;10.35;93.67
58534;BME280;44109;52.398;7.024;2023-03-03T10:20:09;102435.97;;;10.71;94.93
58534;BME280;44109;52.398;7.024;2023-03-03T10:22:51;102433.75;;;10.93;93.60
58534;BME280;44109;52.398;7.024;2023-03-03T10:25:28;102432.44;;;11.00;94.92
58534;BME280;44109;52.398;7.024;2023-03-03T10:28:25;102430.25;;;10.67;89.12
58534;BME280;44109;52.398;7.024;2023-03-03T10:31:39;102431.41;;;8.43;80.79
58534;BME280;44109;52.398;7.024;2023-03-03T10:34:32;102429.81;;;6.59;87.82
58534;BME280;44109;52.398;7.024;2023-03-03T10:37:20;102430.47;;;6.83;88.86
58534;BME280;44109;52.398;7.024;2023-03-03T10:40:05;102429.25;;;8.17;90.20
58534;BME280;44109;52.398;7.024;2023-03-03T10:43:02;102429.13;;;7.63;86.54
58534;BME280;44109;52.398;7.024;2023-03-03T10:46:01;102425.44;;;7.68;91.18
58534;BME280;44109;52.398;7.024;2023-03-03T10:49:04;102425.84;;;7.61;87.33
58534;BME280;44109;52.398;7.024;2023-03-03T10:51:54;102433.19;;;6.70;89.71
58534;BME280;44109;52.398;7.024;2023-03-03T10:54:49;102423.78;;;6.71;94.02
58534;BME280;44109;52.398;7.024;2023-03-03T10:57:34;102429.44;;;6.93;92.33
58534;BME280;44109;52.398;7.024;2023-03-03T11:00:20;102426.88;;;7.52;89.84
58534;BME280;44109;52.398;7.024;2023-03-03T11:03:10;102431.38;;;7.48;91.55
58534;BME280;44109;52.398;7.024;2023-03-03T11:06:04;102425.16;;;6.87;90.39
58534;BME280;44109;52.398;7.024;2023-03-03T11:08:40;102428.84;;;6.96;92.06
58534;BME280;44109;52.398;7.024;2023-03-03T11:11:18;102426.66;;;6.66;90.90
58534;BME280;44109;52.398;7.024;2023-03-03T11:13:55;102428.72;;;6.74;91.17
58534;BME280;44109;52.398;7.024;2023-03-03T11:16:41;102421.50;;;7.05;90.35
58534;BME280;44109;52.398;7.024;2023-03-03T11:19:33;102412.78;;;7.40;88.02
58534;BME280;44109;52.398;7.024;2023-03-03T11:22:21;102419.19;;;7.49;85.15
58534;BME280;44109;52.398;7.024;2023-03-03T11:25:09;102416.50;;;7.71;84.49
58534;BME280;44109;52.398;7.024;2023-03-03T11:28:11;102406.53;;;7.48;89.97
58534;BME280;44109;52.398;7.024;2023-03-03T11:31:00;102391.31;;;7.36;82.34
58534;BME280;44109;52.398;7.024;2023-03-03T11:33:41;102394.00;;;6.73;84.20
58534;BME280;44109;52.398;7.024;2023-03-03T11:36:20;102405.84;;;7.01;89.62
58534;BME280;44109;52.398;7.024;2023-03-03T11:38:56;102399.31;;;7.74;86.51
58534;BME280;44109;52.398;7.024;2023-03-03T11:41:32;102398.38;;;7.43;82.65
58534;BME280;44109;52.398;7.024;2023-03-03T11:44:11;102368.00;;;7.43;87.57
58534;BME280;44109;52.398;7.024;2023-03-03T11:46:47;102403.00;;;7.20;83.56
58534;BME280;44109;52.398;7.024;2023-03-03T11:49:24;102406.16;;;7.27;86.34
58534;BME280;44109;52.398;7.024;2023-03-03T11:52:03;102397.41;;;7.61;81.42
58534;BME280;44109;52.398;7.024;2023-03-03T11:54:48;102393.84;;;7.47;82.48
58534;BME280;44109;52.398;7.024;2023-03-03T11:57:29;102382.88;;;7.69;84.86
58534;BME280;44109;52.398;7.024;2023-03-03T12:00:14;102386.53;;;8.01;81.02
58534;BME280;44109;52.398;7.024;2023-03-03T12:03:04;102382.69;;;7.88;81.39
58534;BME280;44109;52.398;7.024;2023-03-03T12:05:52;102382.50;;;8.07;79.42
58534;BME280;44109;52.398;7.024;2023-03-03T12:08:31;102385.41;;;8.24;79.36
58534;BME280;44109;52.398;7.024;2023-03-03T12:11:14;102382.88;;;8.99;78.88
58534;BME280;44109;52.398;7.024;2023-03-03T12:13:57;102378.09;;;8.82;77.26
58534;BME280;44109;52.398;7.024;2023-03-03T12:16:40;102366.41;;;8.54;76.35
58534;BME280;44109;52.398;7.024;2023-03-03T12:19:25;102380.63;;;7.94;77.72
58534;BME280;44109;52.398;7.024;2023-03-03T12:22:18;102378.28;;;7.65;77.39
58534;BME280;44109;52.398;7.024;2023-03-03T12:27:58;102371.72;;;7.24;83.26
58534;BME280;44109;52.398;7.024;2023-03-03T12:31:07;102344.94;;;7.83;81.64
58534;BME280;44109;52.398;7.024;2023-03-03T12:33:52;102357.06;;;7.37;83.67
58534;BME280;44109;52.398;7.024;2023-03-03T12:36:49;102362.91;;;8.17;82.65
58534;BME280;44109;52.398;7.024;2023-03-03T12:39:46;102364.03;;;7.94;82.72
58534;BME280;44109;52.398;7.024;2023-03-03T12:42:33;102358.22;;;7.95;83.52
58534;BME280;44109;52.398;7.024;2023-03-03T12:45:20;102355.38;;;7.64;84.38
58534;BME280;44109;52.398;7.024;2023-03-03T12:48:07;102358.13;;;8.31;82.71
58534;BME280;44109;52.398;7.024;2023-03-03T12:50:43;102356.19;;;8.54;68.32
58534;BME280;44109;52.398;7.024;2023-03-03T12:53:39;102354.81;;;8.83;65.35
58534;BME280;44109;52.398;7.024;2023-03-03T12:56:23;102352.66;;;8.71;69.42
58534;BME280;44109;52.398;7.024;2023-03-03T12:59:02;102348.63;;;8.77;69.74
58534;BME280;44109;52.398;7.024;2023-03-03T13:01:47;102348.66;;;7.79;77.99
58534;BME280;44109;52.398;7.024;2023-03-03T13:04:33;102348.53;;;7.48;80.75
58534;BME280;44109;52.398;7.024;2023-03-03T13:07:10;102340.75;;;7.27;82.74
58534;BME280;44109;52.398;7.024;2023-03-03T13:10:00;102336.97;;;7.59;80.18
58534;BME280;44109;52.398;7.024;2023-03-03T13:12:39;102321.34;;;7.05;83.19
58534;BME280;44109;52.398;7.024;2023-03-03T13:15:19;102345.91;;;7.79;82.38
58534;BME280;44109;52.398;7.024;2023-03-03T13:17:58;102341.94;;;7.94;79.18
58534;BME280;44109;52.398;7.024;2023-03-03T13:20:43;102341.34;;;7.24;82.26
58534;BME280;44109;52.398;7.024;2023-03-03T13:23:22;102343.81;;;6.84;84.77
58534;BME280;44109;52.398;7.024;2023-03-03T13:26:07;102338.03;;;6.72;86.22
58534;BME280;44109;52.398;7.024;2023-03-03T13:28:42;102328.41;;;6.83;86.75
58534;BME280;44109;52.398;7.024;2023-03-03T13:31:32;102341.38;;;7.10;85.95
58534;BME280;44109;52.398;7.024;2023-03-03T13:34:07;102338.41;;;7.07;84.64
58534;BME280;44109;52.398;7.024;2023-03-03T13:36:49;102332.88;;;7.07;84.52
58534;BME280;44109;52.398;7.024;2023-03-03T13:39:26;102332.16;;;7.15;83.16
58534;BME280;44109;52.398;7.024;2023-03-03T13:42:00;102334.22;;;6.96;84.07
58534;BME280;44109;52.398;7.024;2023-03-03T13:44:35;102328.25;;;7.30;82.69
58534;BME280;44109;52.398;7.024;2023-03-03T13:47:13;102323.22;;;7.46;81.01
58534;BME280;44109;52.398;7.024;2023-03-03T13:49:59;102318.91;;;7.40;79.94
58534;BME280;44109;52.398;7.024;2023-03-03T13:52:46;102325.13;;;7.09;84.39